createdAt,value
2023-04-22T00:01:14.804Z,10.34
2023-04-22T00:03:44.768Z,10.33
2023-04-22T00:06:11.585Z,10.33
2023-04-22T00:08:38.063Z,10.14
2023-04-22T00:11:04.467Z,10.06
2023-04-22T00:13:30.935Z,9.96
2023-04-22T00:15:57.753Z,9.89
2023-04-22T00:18:24.392Z,9.85
2023-04-22T00:20:51.032Z,9.84
2023-04-22T00:23:17.501Z,9.86
2023-04-22T00:25:43.923Z,10.05
2023-04-22T00:28:12.523Z,10.01
2023-04-22T00:30:38.922Z,9.92
2023-04-22T00:33:10.478Z,9.95
2023-04-22T00:35:36.952Z,9.86
2023-04-22T00:38:03.477Z,9.86
2023-04-22T00:40:29.955Z,9.81
2023-04-22T00:42:56.929Z,9.82
2023-04-22T00:45:23.430Z,9.80
2023-04-22T00:47:49.981Z,9.81
2023-04-22T00:50:22.630Z,9.81
2023-04-22T00:52:49.458Z,9.77
2023-04-22T00:55:15.880Z,9.69
2023-04-22T00:57:42.627Z,9.62
2023-04-22T01:00:10.303Z,9.59
2023-04-22T01:02:39.025Z,9.43
2023-04-22T01:05:06.174Z,9.27
2023-04-22T01:07:34.693Z,9.25
2023-04-22T01:10:01.445Z,9.14
2023-04-22T01:12:27.851Z,9.11
2023-04-22T01:14:56.614Z,9.28
2023-04-22T01:17:24.829Z,9.40
2023-04-22T01:19:53.266Z,9.34
2023-04-22T01:22:20.890Z,9.15
2023-04-22T01:24:47.455Z,9.12
2023-04-22T01:27:14.070Z,8.88
2023-04-22T01:29:40.783Z,9.03
2023-04-22T01:32:07.567Z,8.96
2023-04-22T01:34:34.046Z,8.99
2023-04-22T01:37:00.606Z,8.82
2023-04-22T01:39:29.023Z,8.84
2023-04-22T01:41:56.771Z,8.64
2023-04-22T01:44:24.004Z,8.50
2023-04-22T01:46:50.990Z,8.44
2023-04-22T01:49:17.491Z,8.45
2023-04-22T01:51:43.948Z,8.37
2023-04-22T01:54:10.583Z,8.21
2023-04-22T01:56:38.740Z,8.40
2023-04-22T01:59:09.360Z,8.35
2023-04-22T02:01:35.881Z,8.36
2023-04-22T02:04:02.405Z,8.54
2023-04-22T02:06:28.783Z,8.46
2023-04-22T02:08:56.262Z,8.45
2023-04-22T02:11:22.672Z,8.49
2023-04-22T02:13:51.047Z,8.51
2023-04-22T02:16:17.501Z,8.28
2023-04-22T02:18:43.924Z,8.18
2023-04-22T02:21:10.338Z,8.28
2023-04-22T02:23:38.809Z,8.25
2023-04-22T02:26:05.358Z,8.21
2023-04-22T02:28:32.135Z,8.04
2023-04-22T02:30:58.585Z,7.93
2023-04-22T02:33:26.156Z,7.83
2023-04-22T02:35:52.531Z,7.65
2023-04-22T02:38:22.926Z,7.56
2023-04-22T02:40:49.395Z,7.53
2023-04-22T02:43:15.809Z,7.55
2023-04-22T02:45:42.218Z,7.24
2023-04-22T02:48:08.720Z,7.48
2023-04-22T02:50:35.557Z,7.52
2023-04-22T02:53:01.915Z,7.51
2023-04-22T02:55:28.410Z,7.51
2023-04-22T02:57:54.814Z,7.41
2023-04-22T03:00:21.271Z,7.42
2023-04-22T03:03:03.225Z,7.40
2023-04-22T03:05:29.786Z,7.31
2023-04-22T03:07:56.296Z,7.25
2023-04-22T03:10:22.896Z,7.33
2023-04-22T03:12:49.412Z,7.34
2023-04-22T03:15:16.959Z,7.39
2023-04-22T03:17:44.587Z,7.44
2023-04-22T03:20:11.777Z,7.40
2023-04-22T03:22:38.186Z,7.39
2023-04-22T03:25:04.977Z,7.38
2023-04-22T03:27:34.413Z,7.39
2023-04-22T03:30:00.828Z,7.39
2023-04-22T03:32:27.262Z,7.24
2023-04-22T03:34:53.653Z,7.11
2023-04-22T03:37:20.103Z,7.14
2023-04-22T03:39:46.535Z,7.12
2023-04-22T03:42:14.121Z,6.91
2023-04-22T03:44:40.549Z,6.94
2023-04-22T03:47:06.950Z,6.97
2023-04-22T03:49:33.893Z,6.95
2023-04-22T03:52:00.275Z,6.90
2023-04-22T03:54:26.708Z,6.64
2023-04-22T03:56:53.233Z,6.76
2023-04-22T03:59:19.840Z,6.56
2023-04-22T04:01:48.481Z,6.76
2023-04-22T04:04:15.189Z,6.69
2023-04-22T04:06:41.866Z,6.64
2023-04-22T04:09:08.290Z,6.63
2023-04-22T04:11:36.813Z,6.57
2023-04-22T04:14:03.598Z,6.56
2023-04-22T04:16:37.359Z,6.68
2023-04-22T04:19:03.988Z,6.70
2023-04-22T04:21:33.401Z,6.61
2023-04-22T04:24:00.246Z,6.45
2023-04-22T04:26:37.875Z,6.72
2023-04-22T04:29:05.671Z,6.67
2023-04-22T04:31:32.276Z,6.67
2023-04-22T04:33:59.013Z,6.83
2023-04-22T04:36:29.167Z,6.93
2023-04-22T04:38:56.241Z,6.92
2023-04-22T04:41:23.434Z,6.87
2023-04-22T04:43:50.410Z,6.75
2023-04-22T04:46:16.863Z,6.67
2023-04-22T04:48:50.774Z,6.88
2023-04-22T04:51:19.649Z,6.88
2023-04-22T04:53:46.861Z,6.76
2023-04-22T04:56:13.497Z,7.08
2023-04-22T04:58:40.105Z,7.08
2023-04-22T05:01:06.681Z,7.28
2023-04-22T05:03:33.257Z,7.69
2023-04-22T05:05:59.838Z,8.29
2023-04-22T05:08:26.269Z,9.51
2023-04-22T05:10:52.686Z,9.93
2023-04-22T05:13:22.613Z,10.10
2023-04-22T05:15:49.334Z,10.47
2023-04-22T05:18:15.709Z,11.62
2023-04-22T05:20:42.103Z,12.04
2023-04-22T05:23:08.504Z,12.63
2023-04-22T05:25:35.046Z,12.26
2023-04-22T05:28:01.498Z,11.97
2023-04-22T05:30:27.850Z,11.99
2023-04-22T05:32:55.462Z,12.16
2023-04-22T05:35:22.048Z,12.13
2023-04-22T05:37:49.432Z,12.43
2023-04-22T05:40:15.821Z,12.50
2023-04-22T05:42:42.346Z,12.12
2023-04-22T05:45:09.026Z,13.06
2023-04-22T05:47:35.497Z,13.49
2023-04-22T05:50:02.067Z,14.09
2023-04-22T05:52:28.581Z,14.62
2023-04-22T05:55:00.857Z,14.70
2023-04-22T05:57:27.352Z,15.44
2023-04-22T05:59:53.827Z,15.09
2023-04-22T06:02:21.541Z,15.42
2023-04-22T06:04:48.315Z,15.29
2023-04-22T06:07:17.989Z,15.38
2023-04-22T06:09:44.406Z,15.26
2023-04-22T06:12:10.905Z,15.38
2023-04-22T06:14:37.295Z,15.12
2023-04-22T06:17:04.039Z,15.17
2023-04-22T06:19:31.761Z,15.66
2023-04-22T06:22:05.287Z,15.95
2023-04-22T06:24:31.702Z,16.43
2023-04-22T06:26:58.276Z,16.82
2023-04-22T06:29:24.757Z,16.78
2023-04-22T06:31:53.464Z,16.53
2023-04-22T06:34:26.220Z,16.60
2023-04-22T06:36:53.895Z,16.53
2023-04-22T06:39:21.559Z,16.27
2023-04-22T06:41:49.117Z,16.27
2023-04-22T06:44:15.641Z,16.53
2023-04-22T06:46:42.150Z,16.19
2023-04-22T06:49:08.549Z,16.30
2023-04-22T06:51:35.126Z,16.36
2023-04-22T06:54:01.668Z,15.94
2023-04-22T06:56:28.136Z,15.88
2023-04-22T06:58:55.315Z,16.15
2023-04-22T07:01:21.740Z,16.46
2023-04-22T07:03:49.412Z,16.37
2023-04-22T07:06:16.952Z,16.50
2023-04-22T07:08:43.439Z,16.88
2023-04-22T07:11:11.898Z,17.24
2023-04-22T07:13:39.601Z,17.08
2023-04-22T07:16:07.342Z,17.22
2023-04-22T07:18:42.870Z,17.61
2023-04-22T07:21:09.281Z,17.75
2023-04-22T07:23:36.699Z,17.95
2023-04-22T07:26:03.512Z,18.15
2023-04-22T07:28:31.980Z,18.32
2023-04-22T07:30:58.555Z,18.67
2023-04-22T07:33:25.021Z,18.84
2023-04-22T07:35:52.410Z,19.05
2023-04-22T07:38:24.895Z,19.14
2023-04-22T07:40:52.294Z,19.24
2023-04-22T07:43:18.696Z,19.26
2023-04-22T07:45:45.300Z,19.12
2023-04-22T07:48:11.741Z,19.23
2023-04-22T07:50:56.326Z,19.45
2023-04-22T07:53:24.747Z,19.51
2023-04-22T07:55:51.294Z,19.31
2023-04-22T07:58:19.790Z,18.66
2023-04-22T08:00:48.218Z,19.23
2023-04-22T08:03:14.850Z,19.14
2023-04-22T08:05:41.435Z,19.25
2023-04-22T08:08:07.963Z,19.12
2023-04-22T08:10:34.387Z,19.60
2023-04-22T08:13:01.080Z,19.66
2023-04-22T08:15:28.684Z,19.42
2023-04-22T08:17:57.172Z,19.37
2023-04-22T08:20:23.809Z,19.45
2023-04-22T08:22:51.562Z,19.97
2023-04-22T08:25:17.995Z,20.24
2023-04-22T08:27:44.398Z,20.58
2023-04-22T08:30:10.991Z,20.36
2023-04-22T08:32:37.471Z,20.86
2023-04-22T08:35:05.307Z,21.10
2023-04-22T08:37:32.252Z,21.10
2023-04-22T08:39:58.730Z,21.19
2023-04-22T08:42:28.261Z,20.62
2023-04-22T08:44:54.848Z,20.70
2023-04-22T08:47:21.644Z,20.23
2023-04-22T08:49:48.580Z,20.32
2023-04-22T08:52:16.088Z,20.13
2023-04-22T08:54:42.848Z,19.68
2023-04-22T08:57:11.068Z,19.90
2023-04-22T08:59:38.933Z,19.93
2023-04-22T09:02:07.303Z,19.86
2023-04-22T09:04:34.286Z,19.61
2023-04-22T09:07:01.775Z,19.59
2023-04-22T09:09:30.820Z,19.71
2023-04-22T09:11:58.054Z,19.71
2023-04-22T09:14:24.789Z,19.62
2023-04-22T09:16:51.322Z,20.05
2023-04-22T09:19:22.414Z,20.01
2023-04-22T09:21:50.840Z,20.49
2023-04-22T09:24:48.792Z,20.40
2023-04-22T09:27:16.289Z,20.46
2023-04-22T09:29:50.274Z,20.48
2023-04-22T09:32:17.383Z,20.75
2023-04-22T09:34:52.647Z,21.03
2023-04-22T09:37:30.991Z,21.20
2023-04-22T09:40:06.011Z,21.70
2023-04-22T09:42:47.488Z,21.86
2023-04-22T09:45:13.902Z,21.79
2023-04-22T09:47:41.467Z,21.55
2023-04-22T09:50:08.307Z,21.76
2023-04-22T09:52:34.824Z,21.86
2023-04-22T09:55:01.252Z,21.56
2023-04-22T09:57:33.603Z,21.43
2023-04-22T10:00:00.465Z,21.75
2023-04-22T10:02:33.100Z,21.72
2023-04-22T10:05:00.437Z,22.11
2023-04-22T10:07:31.664Z,22.11
2023-04-22T10:09:58.582Z,22.25
2023-04-22T10:12:32.956Z,22.26
2023-04-22T10:15:02.359Z,22.37
2023-04-22T10:17:37.267Z,22.42
2023-04-22T10:20:08.180Z,22.43
2023-04-22T10:22:34.903Z,22.49
2023-04-22T10:25:01.746Z,22.27
2023-04-22T10:27:28.166Z,22.46
2023-04-22T10:29:56.505Z,22.46
2023-04-22T10:32:22.931Z,22.36
2023-04-22T10:34:51.021Z,22.05
2023-04-22T10:37:20.806Z,22.58
2023-04-22T10:40:07.971Z,22.67
2023-04-22T10:42:35.590Z,22.93
2023-04-22T10:45:04.087Z,22.94
2023-04-22T10:47:32.288Z,22.76
2023-04-22T10:50:11.278Z,22.77
2023-04-22T10:52:40.456Z,22.79
2023-04-22T10:55:07.163Z,23.26
2023-04-22T10:57:37.811Z,23.29
2023-04-22T11:00:17.714Z,22.98
2023-04-22T11:02:46.537Z,23.13
2023-04-22T11:05:21.598Z,23.32
2023-04-22T11:07:50.192Z,23.02
2023-04-22T11:10:35.750Z,23.04
2023-04-22T11:13:02.478Z,22.60
2023-04-22T11:15:37.235Z,22.65
2023-04-22T11:18:08.569Z,22.62
2023-04-22T11:20:35.265Z,22.80
2023-04-22T11:23:02.576Z,22.87
2023-04-22T11:25:31.575Z,22.75
2023-04-22T11:27:58.524Z,22.98
2023-04-22T11:30:26.073Z,23.14
2023-04-22T11:32:53.962Z,22.99
2023-04-22T11:35:24.461Z,22.98
2023-04-22T11:38:01.322Z,23.12
2023-04-22T11:40:33.941Z,22.65
2023-04-22T11:43:06.638Z,22.73
2023-04-22T11:45:35.204Z,22.87
2023-04-22T11:48:02.142Z,23.06
2023-04-22T11:50:38.817Z,22.95
2023-04-22T11:53:18.392Z,22.96
2023-04-22T11:55:46.106Z,22.69
2023-04-22T11:58:14.517Z,23.00
2023-04-22T12:00:42.214Z,23.02
2023-04-22T12:03:16.171Z,23.41
2023-04-22T12:05:44.913Z,23.28
2023-04-22T12:08:17.261Z,23.08
2023-04-22T12:10:45.205Z,23.06
2023-04-22T12:13:20.994Z,23.43
2023-04-22T12:15:47.762Z,23.46
2023-04-22T12:18:14.847Z,23.44
2023-04-22T12:20:41.981Z,23.43
2023-04-22T12:23:16.361Z,23.51
2023-04-22T12:25:43.058Z,23.34
2023-04-22T12:28:10.254Z,23.75
2023-04-22T12:30:43.898Z,23.92
2023-04-22T12:33:12.396Z,23.88
2023-04-22T12:35:38.913Z,23.70
2023-04-22T12:38:05.363Z,23.70
2023-04-22T12:40:38.624Z,23.55
2023-04-22T12:43:06.238Z,23.54
2023-04-22T12:45:32.705Z,23.49
2023-04-22T12:47:59.622Z,23.15
2023-04-22T12:50:26.172Z,23.47
2023-04-22T12:52:53.603Z,23.68
2023-04-22T12:55:21.057Z,23.55
2023-04-22T12:57:48.648Z,23.54
2023-04-22T13:00:15.576Z,23.68
2023-04-22T13:02:42.847Z,23.57
2023-04-22T13:05:16.347Z,23.61
2023-04-22T13:07:45.446Z,23.65
2023-04-22T13:10:14.381Z,23.66
2023-04-22T13:12:42.030Z,23.42
2023-04-22T13:15:09.050Z,22.95
2023-04-22T13:17:35.907Z,22.95
2023-04-22T13:20:02.448Z,22.99
2023-04-22T13:22:28.829Z,22.84
2023-04-22T13:24:55.254Z,23.01
2023-04-22T13:27:21.698Z,23.07
2023-04-22T13:29:48.148Z,22.87
2023-04-22T13:32:14.629Z,22.85
2023-04-22T13:34:41.198Z,23.14
2023-04-22T13:37:08.268Z,22.70
2023-04-22T13:39:34.699Z,23.38
2023-04-22T13:42:01.677Z,23.49
2023-04-22T13:44:28.151Z,23.73
2023-04-22T13:46:54.678Z,23.57
2023-04-22T13:49:22.218Z,23.33
2023-04-22T13:51:48.677Z,23.65
2023-04-22T13:54:22.401Z,23.67
2023-04-22T13:56:49.110Z,23.58
2023-04-22T13:59:16.082Z,23.64
2023-04-22T14:01:42.611Z,23.86
2023-04-22T14:04:10.307Z,23.68
2023-04-22T14:06:38.568Z,23.64
2023-04-22T14:09:05.323Z,23.76
2023-04-22T14:11:31.828Z,23.62
2023-04-22T14:13:58.275Z,23.58
2023-04-22T14:16:24.782Z,23.47
2023-04-22T14:18:51.325Z,23.51
2023-04-22T14:21:17.768Z,23.05
2023-04-22T14:23:44.412Z,23.00
2023-04-22T14:26:12.126Z,23.11
2023-04-22T14:28:39.296Z,23.23
2023-04-22T14:31:06.288Z,23.75
2023-04-22T14:33:32.997Z,23.68
2023-04-22T14:36:00.449Z,23.52
2023-04-22T14:38:26.958Z,23.49
2023-04-22T14:40:53.425Z,23.44
2023-04-22T14:43:19.960Z,23.78
2023-04-22T14:45:48.072Z,23.48
2023-04-22T14:48:14.553Z,23.38
2023-04-22T14:50:42.113Z,23.39
2023-04-22T14:53:08.620Z,23.47
2023-04-22T14:55:35.776Z,23.45
2023-04-22T14:58:02.242Z,23.18
2023-04-22T15:00:28.933Z,23.16
2023-04-22T15:02:56.269Z,22.99
2023-04-22T15:05:23.923Z,23.17
2023-04-22T15:07:50.826Z,22.73
2023-04-22T15:10:17.297Z,22.99
2023-04-22T15:12:44.867Z,22.95
2023-04-22T15:15:16.109Z,23.01
2023-04-22T15:17:43.342Z,22.83
2023-04-22T15:20:10.123Z,22.91
2023-04-22T15:22:37.088Z,22.93
2023-04-22T15:25:03.778Z,23.07
2023-04-22T15:27:30.371Z,22.91
2023-04-22T15:29:57.747Z,22.75
2023-04-22T15:32:24.661Z,22.63
2023-04-22T15:34:52.143Z,22.63
2023-04-22T15:37:18.636Z,22.46
2023-04-22T15:39:45.185Z,22.68
2023-04-22T15:42:11.633Z,23.03
2023-04-22T15:44:38.186Z,23.11
2023-04-22T15:47:04.745Z,23.02
2023-04-22T15:49:31.308Z,22.88
2023-04-22T15:51:57.842Z,22.83
2023-04-22T15:54:24.896Z,22.60
2023-04-22T15:56:51.306Z,22.42
2023-04-22T15:59:17.814Z,22.32
2023-04-22T16:01:46.413Z,22.68
2023-04-22T16:04:13.525Z,22.83
2023-04-22T16:06:40.573Z,22.93
2023-04-22T16:09:07.049Z,22.64
2023-04-22T16:11:35.655Z,22.42
2023-04-22T16:14:02.148Z,22.28
2023-04-22T16:16:29.658Z,22.42
2023-04-22T16:18:56.205Z,22.39
2023-04-22T16:21:22.709Z,22.37
2023-04-22T16:23:49.129Z,22.11
2023-04-22T16:26:15.662Z,22.46
2023-04-22T16:28:42.142Z,22.31
2023-04-22T16:31:10.609Z,22.47
2023-04-22T16:33:37.101Z,22.33
2023-04-22T16:36:03.873Z,22.28
2023-04-22T16:38:30.361Z,22.33
2023-04-22T16:40:57.274Z,22.32
2023-04-22T16:43:23.770Z,22.32
2023-04-22T16:45:50.348Z,22.33
2023-04-22T16:48:16.785Z,22.11
2023-04-22T16:50:43.280Z,22.11
2023-04-22T16:53:12.385Z,22.12
2023-04-22T16:55:39.001Z,22.12
2023-04-22T16:58:05.643Z,21.86
2023-04-22T17:00:32.181Z,21.67
2023-04-22T17:03:00.857Z,21.63
2023-04-22T17:05:27.407Z,21.76
2023-04-22T17:07:53.938Z,21.61
2023-04-22T17:10:20.372Z,21.65
2023-04-22T17:12:47.694Z,21.42
2023-04-22T17:15:14.216Z,21.37
2023-04-22T17:17:40.672Z,21.41
2023-04-22T17:22:33.634Z,21.35
2023-04-22T17:25:00.169Z,21.20
2023-04-22T17:27:26.734Z,21.10
2023-04-22T17:29:53.139Z,21.02
2023-04-22T17:32:19.595Z,20.92
2023-04-22T17:34:46.055Z,20.88
2023-04-22T17:37:12.529Z,20.83
2023-04-22T17:39:40.432Z,20.78
2023-04-22T17:42:07.036Z,20.73
2023-04-22T17:44:33.590Z,20.67
2023-04-22T17:47:00.182Z,20.57
2023-04-22T17:49:26.706Z,20.45
2023-04-22T17:51:53.606Z,20.23
2023-04-22T17:54:20.183Z,19.93
2023-04-22T17:56:47.313Z,19.80
2023-04-22T17:59:13.854Z,19.59
2023-04-22T18:01:40.322Z,19.42
2023-04-22T18:04:07.033Z,19.31
2023-04-22T18:06:33.660Z,19.08
2023-04-22T18:09:02.092Z,18.92
2023-04-22T18:11:28.960Z,18.78
2023-04-22T18:13:58.474Z,18.63
2023-04-22T18:16:24.950Z,18.48
2023-04-22T18:18:51.406Z,18.49
2023-04-22T18:21:18.365Z,18.43
2023-04-22T18:23:44.856Z,18.48
2023-04-22T18:26:12.263Z,18.32
2023-04-22T18:28:41.245Z,18.35
2023-04-22T18:31:08.187Z,18.17
2023-04-22T18:33:34.860Z,18.25
2023-04-22T18:36:01.388Z,18.18
2023-04-22T18:38:27.898Z,18.20
2023-04-22T18:40:56.477Z,18.20
2023-04-22T18:43:22.940Z,18.11
2023-04-22T18:45:49.372Z,18.02
2023-04-22T18:48:18.816Z,17.98
2023-04-22T18:50:46.492Z,17.91
2023-04-22T18:53:12.943Z,17.76
2023-04-22T18:55:39.827Z,17.74
2023-04-22T18:58:08.371Z,17.65
2023-04-22T19:00:35.090Z,17.48
2023-04-22T19:03:02.706Z,17.48
2023-04-22T19:05:29.364Z,17.38
2023-04-22T19:07:55.833Z,17.20
2023-04-22T19:10:22.298Z,17.00
2023-04-22T19:12:49.036Z,17.09
2023-04-22T19:15:15.752Z,17.17
2023-04-22T19:17:43.389Z,17.20
2023-04-22T19:20:10.324Z,17.24
2023-04-22T19:22:36.866Z,17.13
2023-04-22T19:25:03.523Z,17.04
2023-04-22T19:27:29.972Z,16.86
2023-04-22T19:29:56.471Z,16.82
2023-04-22T19:32:23.068Z,16.89
2023-04-22T19:34:51.728Z,16.82
2023-04-22T19:37:18.544Z,16.73
2023-04-22T19:39:47.044Z,16.71
2023-04-22T19:42:13.540Z,16.80
2023-04-22T19:44:42.908Z,16.80
2023-04-22T19:47:09.411Z,16.73
2023-04-22T19:49:35.930Z,16.69
2023-04-22T19:52:03.942Z,16.69
2023-04-22T19:54:30.849Z,16.58
2023-04-22T19:56:58.550Z,16.59
2023-04-22T19:59:28.115Z,16.42
2023-04-22T20:01:54.748Z,16.44
2023-04-22T20:04:21.891Z,16.40
2023-04-22T20:06:50.007Z,16.25
2023-04-22T20:09:17.232Z,16.15
2023-04-22T20:11:43.861Z,16.21
2023-04-22T20:14:10.603Z,16.25
2023-04-22T20:16:37.639Z,16.01
2023-04-22T20:19:04.613Z,16.16
2023-04-22T20:21:31.759Z,16.07
2023-04-22T20:24:01.687Z,16.01
2023-04-22T20:26:28.320Z,16.10
2023-04-22T20:28:55.149Z,16.01
2023-04-22T20:31:23.465Z,15.97
2023-04-22T20:33:53.156Z,15.97
2023-04-22T20:36:22.682Z,15.78
2023-04-22T20:38:49.482Z,15.88
2023-04-22T20:41:18.214Z,15.92
2023-04-22T20:43:50.740Z,16.05
2023-04-22T20:46:17.412Z,15.91
2023-04-22T20:48:44.014Z,15.89
2023-04-22T20:51:10.462Z,15.78
2023-04-22T20:53:37.103Z,15.89
2023-04-22T20:56:05.103Z,15.73
2023-04-22T20:58:33.315Z,15.84
2023-04-22T21:01:01.092Z,15.60
2023-04-22T21:03:27.734Z,15.73
2023-04-22T21:05:54.802Z,15.84
2023-04-22T21:08:25.264Z,15.65
2023-04-22T21:10:53.328Z,15.68
2023-04-22T21:13:21.221Z,15.53
2023-04-22T21:16:01.897Z,15.37
2023-04-22T21:18:29.046Z,15.49
2023-04-22T21:20:57.564Z,15.12
2023-04-22T21:23:25.130Z,15.22
2023-04-22T21:25:54.894Z,15.20
2023-04-22T21:28:21.949Z,15.20
2023-04-22T21:30:49.449Z,15.16
2023-04-22T21:33:16.858Z,15.03
2023-04-22T21:35:43.405Z,15.11
2023-04-22T21:38:10.017Z,15.01
2023-04-22T21:40:36.409Z,15.06
2023-04-22T21:43:04.511Z,15.20
2023-04-22T21:45:31.303Z,15.19
2023-04-22T21:48:01.433Z,15.11
2023-04-22T21:50:30.170Z,14.94
2023-04-22T21:52:58.156Z,14.86
2023-04-22T21:55:24.682Z,14.48
2023-04-22T21:57:51.510Z,14.66
2023-04-22T22:00:19.292Z,14.51
2023-04-22T22:02:47.797Z,14.59
2023-04-22T22:05:17.543Z,14.50
2023-04-22T22:07:45.035Z,14.61
2023-04-22T22:10:12.660Z,14.63
2023-04-22T22:12:39.122Z,14.65
2023-04-22T22:15:06.552Z,14.46
2023-04-22T22:17:33.022Z,14.35
2023-04-22T22:19:59.449Z,14.20
2023-04-22T22:22:26.275Z,14.10
2023-04-22T22:24:52.826Z,14.12
2023-04-22T22:27:19.387Z,13.95
2023-04-22T22:29:46.593Z,13.88
2023-04-22T22:32:13.317Z,13.74
2023-04-22T22:34:40.245Z,13.89
2023-04-22T22:37:07.078Z,13.96
2023-04-22T22:39:33.530Z,13.95
2023-04-22T22:42:00.082Z,13.83
2023-04-22T22:44:27.121Z,13.67
2023-04-22T22:46:53.581Z,13.80
2023-04-22T22:49:21.854Z,13.90
2023-04-22T22:51:48.322Z,13.68
2023-04-22T22:54:14.781Z,13.69
2023-04-22T22:56:41.260Z,13.87
2023-04-22T22:59:07.675Z,13.67
2023-04-22T23:01:34.289Z,13.72
2023-04-22T23:04:01.026Z,13.82
2023-04-22T23:06:27.596Z,13.89
2023-04-22T23:08:53.989Z,13.93
2023-04-22T23:11:20.471Z,13.88
2023-04-22T23:13:47.941Z,13.75
2023-04-22T23:16:14.370Z,13.57
2023-04-22T23:18:40.994Z,13.63
2023-04-22T23:21:07.574Z,13.41
2023-04-22T23:23:36.927Z,13.25
2023-04-22T23:26:03.657Z,13.63
2023-04-22T23:28:30.301Z,13.58
2023-04-22T23:30:57.284Z,13.49
2023-04-22T23:33:25.625Z,13.28
2023-04-22T23:35:53.394Z,13.44
2023-04-22T23:38:19.932Z,13.35
2023-04-22T23:40:46.450Z,13.36
2023-04-22T23:43:12.855Z,13.45
2023-04-22T23:45:40.138Z,13.52
2023-04-22T23:48:06.670Z,13.56
2023-04-22T23:50:33.315Z,13.39
2023-04-22T23:52:59.751Z,13.37
2023-04-22T23:55:26.792Z,13.25
2023-04-22T23:57:54.056Z,13.47
